ADDS METAR Data

Data at: 0511 UTC 19 Jan 2018

METAR for:KBID (Block Island Arpt, RI, US)
Text:KBID 190456Z AUTO 32008G14KT 10SM CLR M03/M08 A2999 RMK AO2 SLP160 T10331078 FZRANO TSNO
Temperature: -3.3°C ( 26°F)
Dewpoint: -7.8°C ( 18°F) [RH = 71%]
Pressure (altimeter):29.99 inches Hg (1015.7 mb) [Sea level pressure: 1016.0 mb]
Winds:from the NW (320 degrees) at 9 MPH (8 knots; 4.1 m/s) gusting to 16 MPH (14 knots; 7.2 m/s)
Visibility:10 or more sm (16+ km)
Ceiling:at least 12,000 feet AGL
Clouds:sky clear below 12,000 feet AGL
QC Flag:automated observation with no human augmentation